createdAt,value
2022-08-20T00:01:57.061Z,56.61
2022-08-20T00:17:00.006Z,60.10
2022-08-20T00:32:01.852Z,58.06
2022-08-20T00:47:05.207Z,60.52
2022-08-20T01:02:09.506Z,62.56
2022-08-20T01:17:15.896Z,65.14
2022-08-20T01:32:17.421Z,63.71
2022-08-20T01:47:24.476Z,59.77
2022-08-20T02:02:26.434Z,62.29
2022-08-20T02:17:28.190Z,64.88
2022-08-20T02:32:33.922Z,64.86
2022-08-20T02:47:35.953Z,65.31
2022-08-20T03:02:37.479Z,66.91
2022-08-20T03:17:39.225Z,69.79
2022-08-20T03:32:40.919Z,68.82
2022-08-20T03:47:42.632Z,69.36
2022-08-20T04:02:44.180Z,68.45
2022-08-20T04:17:47.307Z,67.17
2022-08-20T04:32:49.987Z,65.44
2022-08-20T04:47:52.037Z,59.00
2022-08-20T05:02:53.610Z,55.54
2022-08-20T05:17:56.771Z,51.85
2022-08-20T05:32:58.486Z,48.50
2022-08-20T05:48:04.097Z,46.80
2022-08-20T06:03:24.230Z,46.28
2022-08-20T06:18:28.642Z,43.44
2022-08-20T06:33:30.417Z,44.53
2022-08-20T06:48:31.976Z,43.27
2022-08-20T07:03:34.153Z,42.12
2022-08-20T07:18:36.519Z,45.07
2022-08-20T07:33:41.243Z,42.71
2022-08-20T07:48:46.373Z,44.94
2022-08-20T08:03:50.458Z,42.15
2022-08-20T08:18:56.463Z,42.07
2022-08-20T08:33:58.376Z,41.05
2022-08-20T08:49:01.724Z,43.03
2022-08-20T09:04:05.541Z,40.64
2022-08-20T09:19:07.153Z,38.92
2022-08-20T09:34:09.113Z,38.44
2022-08-20T09:49:10.675Z,33.67
2022-08-20T10:04:12.403Z,31.15
2022-08-20T10:19:13.981Z,34.11
2022-08-20T10:34:15.561Z,31.69
2022-08-20T10:49:17.145Z,31.33
2022-08-20T11:04:18.796Z,35.08
2022-08-20T11:19:20.311Z,35.07
2022-08-20T11:34:21.966Z,35.37
2022-08-20T11:49:23.596Z,36.59
2022-08-20T12:04:25.239Z,37.68
2022-08-20T12:19:30.149Z,42.10
2022-08-20T12:34:31.749Z,57.18
2022-08-20T12:49:33.305Z,81.05
2022-08-20T13:04:34.903Z,78.77
2022-08-20T13:19:37.189Z,78.41
2022-08-20T13:34:38.712Z,79.55
2022-08-20T13:49:40.326Z,83.37
2022-08-20T14:04:42.033Z,90.17
2022-08-20T14:19:44.104Z,92.17
2022-08-20T14:34:45.809Z,94.17
2022-08-20T14:49:47.945Z,91.41
2022-08-20T15:04:54.462Z,88.93
2022-08-20T15:19:57.757Z,100.00
2022-08-20T15:34:59.286Z,94.46
2022-08-20T15:50:14.146Z,95.46
2022-08-20T16:05:36.766Z,97.50
2022-08-20T16:20:49.068Z,92.36
2022-08-20T16:35:54.686Z,94.67
2022-08-20T16:51:02.079Z,91.45
2022-08-20T17:06:14.225Z,96.93
2022-08-20T17:21:16.874Z,97.43
2022-08-20T17:36:20.358Z,96.50
2022-08-20T17:51:23.832Z,91.12
2022-08-20T18:06:37.921Z,91.00
2022-08-20T18:21:49.820Z,90.95
2022-08-20T18:36:58.507Z,83.85
2022-08-20T18:52:27.803Z,83.45
2022-08-20T19:07:45.800Z,82.98
2022-08-20T19:22:52.686Z,90.81
2022-08-20T19:37:54.248Z,91.94
2022-08-20T19:53:17.509Z,89.44
2022-08-20T20:08:19.244Z,86.07
2022-08-20T20:23:27.752Z,86.63
2022-08-20T20:38:52.721Z,98.71
2022-08-20T20:53:56.971Z,100.00
2022-08-20T21:08:58.733Z,100.00
2022-08-20T21:24:00.273Z,91.59
2022-08-20T21:39:01.812Z,93.44
2022-08-20T21:54:03.424Z,84.36
2022-08-20T22:16:09.203Z,89.30
2022-08-20T22:31:11.424Z,91.79
2022-08-20T22:46:15.051Z,80.16
2022-08-20T23:01:16.940Z,87.72
2022-08-20T23:16:18.575Z,82.80
2022-08-20T23:31:20.124Z,79.60
2022-08-20T23:46:24.437Z,81.90
